createdAt,value
2019-02-17T00:01:19.780Z,26.27
2019-02-17T00:03:48.725Z,28.47
2019-02-17T00:06:18.082Z,21.80
2019-02-17T00:08:46.885Z,24.57
2019-02-17T00:11:15.725Z,22.90
2019-02-17T00:13:45.944Z,21.17
2019-02-17T00:16:14.949Z,25.63
2019-02-17T00:18:43.969Z,24.73
2019-02-17T00:21:12.960Z,26.23
2019-02-17T00:23:41.897Z,27.07
2019-02-17T00:26:10.639Z,23.57
2019-02-17T00:28:39.573Z,20.47
2019-02-17T00:31:08.409Z,22.37
2019-02-17T00:33:37.017Z,25.20
2019-02-17T00:36:06.217Z,21.37
2019-02-17T00:38:34.657Z,19.53
2019-02-17T00:41:03.519Z,23.27
2019-02-17T00:43:32.429Z,20.27
2019-02-17T00:46:00.997Z,19.53
2019-02-17T00:48:29.319Z,20.87
2019-02-17T00:50:57.953Z,20.10
2019-02-17T00:53:26.387Z,22.70
2019-02-17T00:55:55.120Z,24.97
2019-02-17T00:58:23.804Z,20.20
2019-02-17T01:00:52.501Z,22.07
2019-02-17T01:03:21.212Z,20.60
2019-02-17T01:05:50.537Z,23.30
2019-02-17T01:08:19.246Z,23.07
2019-02-17T01:10:47.908Z,19.77
2019-02-17T01:13:16.901Z,21.97
2019-02-17T01:15:45.358Z,20.03
2019-02-17T01:18:14.137Z,23.33
2019-02-17T01:20:42.552Z,20.80
2019-02-17T01:23:10.877Z,17.60
2019-02-17T01:25:40.909Z,17.73
2019-02-17T01:28:09.938Z,18.53
2019-02-17T01:30:38.197Z,16.27
2019-02-17T01:33:07.420Z,18.27
2019-02-17T01:35:37.081Z,18.53
2019-02-17T01:38:05.724Z,13.90
2019-02-17T01:40:34.542Z,14.90
2019-02-17T01:43:02.936Z,17.02
2019-02-17T01:45:32.633Z,14.37
2019-02-17T01:48:01.209Z,13.70
2019-02-17T01:50:29.952Z,17.03
2019-02-17T01:52:58.689Z,19.53
2019-02-17T01:55:27.576Z,18.73
2019-02-17T01:57:55.968Z,17.63
2019-02-17T02:00:24.443Z,14.90
2019-02-17T02:02:53.217Z,14.93
2019-02-17T02:05:21.649Z,16.17
2019-02-17T02:07:50.193Z,17.20
2019-02-17T02:10:19.325Z,17.53
2019-02-17T02:12:48.125Z,18.30
2019-02-17T02:15:17.116Z,15.53
2019-02-17T02:17:45.944Z,18.33
2019-02-17T02:20:14.372Z,15.40
2019-02-17T02:22:42.897Z,18.37
2019-02-17T02:25:12.623Z,19.57
2019-02-17T02:27:41.304Z,19.13
2019-02-17T02:30:10.219Z,17.17
2019-02-17T02:32:38.780Z,16.70
2019-02-17T02:35:07.116Z,15.73
2019-02-17T02:37:35.437Z,16.33
2019-02-17T02:40:04.133Z,12.10
2019-02-17T02:42:32.968Z,15.13
2019-02-17T02:45:01.709Z,14.73
2019-02-17T02:47:31.476Z,14.70
2019-02-17T02:50:00.255Z,12.90
2019-02-17T02:52:29.065Z,14.47
2019-02-17T02:54:57.679Z,12.80
2019-02-17T02:57:26.267Z,16.37
2019-02-17T02:59:54.970Z,13.10
2019-02-17T03:02:23.734Z,17.57
2019-02-17T03:04:52.673Z,16.40
2019-02-17T03:07:22.337Z,13.03
2019-02-17T03:09:50.938Z,16.03
2019-02-17T03:12:19.489Z,13.43
2019-02-17T03:14:47.978Z,12.47
2019-02-17T03:17:16.331Z,11.53
2019-02-17T03:19:44.938Z,12.13
2019-02-17T03:22:13.325Z,13.63
2019-02-17T03:24:42.105Z,11.80
2019-02-17T03:27:10.850Z,10.10
2019-02-17T03:29:39.753Z,9.77
2019-02-17T03:32:08.470Z,12.00
2019-02-17T03:34:38.013Z,11.30
2019-02-17T03:37:06.425Z,11.67
2019-02-17T03:39:35.034Z,10.50
2019-02-17T03:42:03.631Z,10.50
2019-02-17T03:44:32.509Z,13.05
2019-02-17T03:47:02.174Z,11.30
2019-02-17T03:49:31.962Z,11.37
2019-02-17T03:52:00.305Z,12.40
2019-02-17T03:54:28.792Z,13.33
2019-02-17T03:56:57.140Z,11.13
2019-02-17T03:59:25.389Z,17.83
2019-02-17T04:01:54.291Z,14.33
2019-02-17T04:04:23.129Z,13.23
2019-02-17T04:06:51.808Z,13.87
2019-02-17T04:09:20.346Z,11.90
2019-02-17T04:11:48.945Z,15.67
2019-02-17T04:14:17.399Z,12.07
2019-02-17T04:16:46.096Z,11.97
2019-02-17T04:19:14.724Z,10.33
2019-02-17T04:21:43.061Z,13.70
2019-02-17T04:24:11.617Z,12.17
2019-02-17T04:26:40.190Z,12.33
2019-02-17T04:29:10.310Z,13.10
2019-02-17T04:31:38.956Z,15.53
2019-02-17T04:34:07.763Z,14.15
2019-02-17T04:36:37.177Z,14.47
2019-02-17T04:39:05.691Z,13.37
2019-02-17T04:41:34.450Z,16.23
2019-02-17T04:44:02.817Z,20.57
2019-02-17T04:46:31.428Z,23.97
2019-02-17T04:49:00.059Z,24.80
2019-02-17T04:51:28.714Z,34.60
2019-02-17T04:53:57.973Z,32.13
2019-02-17T04:56:26.654Z,32.43
2019-02-17T04:58:55.750Z,28.00
2019-02-17T05:01:24.326Z,25.37
2019-02-17T05:03:52.821Z,26.97
2019-02-17T05:06:21.320Z,22.43
2019-02-17T05:08:49.677Z,20.80
2019-02-17T05:11:18.253Z,18.93
2019-02-17T05:13:47.053Z,19.63
2019-02-17T05:16:15.253Z,24.23
2019-02-17T05:18:43.807Z,20.07
2019-02-17T05:21:12.389Z,20.67
2019-02-17T05:23:40.814Z,27.10
2019-02-17T05:26:09.436Z,22.60
2019-02-17T05:28:37.874Z,18.23
2019-02-17T05:31:06.280Z,20.23
2019-02-17T05:33:35.048Z,19.87
2019-02-17T05:36:03.739Z,19.83
2019-02-17T05:38:32.566Z,17.73
2019-02-17T05:41:00.816Z,16.87
2019-02-17T05:43:29.185Z,20.47
2019-02-17T05:45:57.818Z,20.63
2019-02-17T05:48:26.497Z,18.00
2019-02-17T05:50:55.382Z,14.37
2019-02-17T05:53:24.064Z,14.13
2019-02-17T05:55:52.448Z,15.23
2019-02-17T05:58:20.974Z,22.20
2019-02-17T06:00:50.440Z,15.43
2019-02-17T06:03:18.929Z,18.23
2019-02-17T06:05:47.572Z,20.33
2019-02-17T06:08:15.819Z,15.80
2019-02-17T06:10:44.504Z,16.37
2019-02-17T06:13:13.150Z,14.23
2019-02-17T06:15:42.097Z,14.40
2019-02-17T06:18:10.730Z,15.53
2019-02-17T06:20:39.074Z,17.10
2019-02-17T06:23:07.697Z,13.93
2019-02-17T06:25:36.527Z,12.43
2019-02-17T06:28:05.465Z,15.63
2019-02-17T06:30:33.953Z,16.90
2019-02-17T06:33:02.732Z,16.50
2019-02-17T06:35:31.216Z,15.10
2019-02-17T06:37:59.567Z,16.63
2019-02-17T06:40:27.789Z,17.63
2019-02-17T06:42:56.108Z,14.70
2019-02-17T06:45:24.707Z,15.70
2019-02-17T06:47:54.277Z,19.47
2019-02-17T06:50:23.385Z,26.17
2019-02-17T06:52:52.131Z,21.93
2019-02-17T06:55:31.773Z,22.13
2019-02-17T06:58:00.173Z,17.23
2019-02-17T07:00:38.078Z,17.20
2019-02-17T07:03:06.784Z,20.33
2019-02-17T07:05:43.745Z,16.03
2019-02-17T07:08:12.013Z,16.10
2019-02-17T07:10:40.350Z,21.37
2019-02-17T07:13:08.849Z,23.00
2019-02-17T07:15:37.209Z,21.27
2019-02-17T07:18:05.553Z,19.27
2019-02-17T07:20:34.341Z,19.20
2019-02-17T07:23:02.700Z,19.70
2019-02-17T07:25:32.270Z,17.00
2019-02-17T07:28:00.603Z,15.07
2019-02-17T07:30:29.012Z,18.97
2019-02-17T07:32:57.770Z,17.27
2019-02-17T07:35:26.763Z,15.90
2019-02-17T07:37:55.222Z,13.53
2019-02-17T07:40:23.734Z,13.43
2019-02-17T07:42:52.097Z,14.03
2019-02-17T07:45:20.738Z,15.53
2019-02-17T07:47:49.417Z,14.27
2019-02-17T07:50:17.903Z,16.13
2019-02-17T07:52:46.953Z,15.40
2019-02-17T07:55:15.530Z,14.93
2019-02-17T07:57:44.002Z,17.47
2019-02-17T08:00:12.706Z,17.27
2019-02-17T08:02:41.340Z,17.20
2019-02-17T08:05:09.985Z,17.33
2019-02-17T08:07:38.446Z,17.43
2019-02-17T08:10:07.444Z,19.45
2019-02-17T08:12:37.303Z,17.37
2019-02-17T08:15:07.355Z,21.13
2019-02-17T08:17:36.581Z,18.33
2019-02-17T08:20:05.485Z,17.37
2019-02-17T08:22:34.193Z,21.37
2019-02-17T08:25:02.982Z,24.30
2019-02-17T08:27:31.509Z,20.73
2019-02-17T08:29:59.788Z,21.77
2019-02-17T08:32:28.363Z,22.33
2019-02-17T08:34:57.320Z,23.13
2019-02-17T08:37:26.205Z,20.27
2019-02-17T08:39:55.313Z,17.77
2019-02-17T08:42:23.886Z,19.03
2019-02-17T08:44:52.661Z,21.87
2019-02-17T08:47:21.530Z,18.97
2019-02-17T08:49:50.349Z,18.00
2019-02-17T08:52:18.945Z,23.80
2019-02-17T08:54:47.525Z,18.20
2019-02-17T08:57:15.977Z,16.20
2019-02-17T08:59:44.549Z,17.97
2019-02-17T09:02:13.277Z,16.03
2019-02-17T09:04:42.165Z,15.17
2019-02-17T09:07:10.426Z,13.50
2019-02-17T09:09:39.220Z,22.20
2019-02-17T09:12:07.714Z,19.13
2019-02-17T09:14:36.593Z,16.20
2019-02-17T09:17:06.111Z,21.27
2019-02-17T09:19:36.001Z,22.23
2019-02-17T09:22:04.785Z,18.97
2019-02-17T09:24:33.544Z,17.03
2019-02-17T09:27:02.385Z,18.57
2019-02-17T09:29:31.068Z,18.73
2019-02-17T09:31:59.717Z,25.20
2019-02-17T09:34:28.538Z,18.43
2019-02-17T09:36:57.326Z,13.93
2019-02-17T09:39:26.090Z,16.47
2019-02-17T09:41:54.595Z,19.07
2019-02-17T09:44:22.922Z,13.33
2019-02-17T09:46:51.340Z,17.30
2019-02-17T09:49:20.206Z,15.43
2019-02-17T09:51:49.087Z,13.33
2019-02-17T09:54:18.027Z,15.77
2019-02-17T09:56:46.815Z,17.63
2019-02-17T09:59:15.408Z,15.77
2019-02-17T10:01:44.133Z,18.37
2019-02-17T10:04:12.945Z,14.80
2019-02-17T10:06:41.816Z,19.43
2019-02-17T10:09:10.459Z,20.53
2019-02-17T10:11:39.197Z,19.57
2019-02-17T10:14:08.184Z,22.43
2019-02-17T10:16:37.583Z,23.37
2019-02-17T10:19:06.225Z,18.00
2019-02-17T10:21:35.173Z,15.57
2019-02-17T10:24:04.112Z,18.47
2019-02-17T10:26:32.520Z,19.47
2019-02-17T10:29:01.177Z,17.10
2019-02-17T10:31:29.846Z,17.33
2019-02-17T10:33:58.605Z,17.57
2019-02-17T10:36:27.405Z,18.62
2019-02-17T10:39:20.783Z,17.27
2019-02-17T10:41:51.680Z,20.37
2019-02-17T10:44:23.940Z,18.30
2019-02-17T10:47:13.854Z,21.17
2019-02-17T10:49:42.949Z,18.00
2019-02-17T10:52:13.125Z,17.03
2019-02-17T10:54:41.756Z,16.53
2019-02-17T10:57:10.520Z,15.43
2019-02-17T10:59:40.061Z,18.00
2019-02-17T11:02:09.217Z,19.07
2019-02-17T11:04:37.738Z,16.73
2019-02-17T11:07:06.442Z,17.43
2019-02-17T11:09:34.729Z,16.07
2019-02-17T11:12:03.212Z,18.07
2019-02-17T11:14:31.672Z,20.60
2019-02-17T11:17:01.777Z,19.73
2019-02-17T11:19:33.143Z,13.67
2019-02-17T11:22:04.526Z,28.13
2019-02-17T11:24:34.643Z,15.90
2019-02-17T11:27:03.685Z,15.23
2019-02-17T11:29:32.962Z,15.90
2019-02-17T11:32:03.460Z,26.93
2019-02-17T11:34:32.750Z,17.37
2019-02-17T11:37:02.002Z,13.83
2019-02-17T11:39:31.249Z,14.05
2019-02-17T11:41:59.892Z,15.93
2019-02-17T11:44:28.640Z,12.67
2019-02-17T11:46:57.164Z,16.33
2019-02-17T11:49:25.518Z,16.57
2019-02-17T11:51:54.168Z,13.07
2019-02-17T11:54:22.946Z,15.73
2019-02-17T11:56:51.848Z,12.63
2019-02-17T11:59:20.568Z,12.97
2019-02-17T12:01:49.516Z,15.03
2019-02-17T12:04:21.318Z,21.10
2019-02-17T12:06:50.311Z,22.63
2019-02-17T12:09:19.305Z,15.53
2019-02-17T12:11:47.991Z,10.40
2019-02-17T12:14:16.656Z,14.67
2019-02-17T12:16:45.352Z,16.32
2019-02-17T12:19:13.866Z,18.63
2019-02-17T12:21:48.035Z,15.43
2019-02-17T12:24:19.414Z,17.10
2019-02-17T12:27:07.144Z,14.27
2019-02-17T12:29:49.913Z,18.80
2019-02-17T12:32:24.074Z,14.47
2019-02-17T12:34:53.118Z,11.77
2019-02-17T12:37:23.089Z,15.27
2019-02-17T12:40:11.126Z,10.97
2019-02-17T12:42:40.413Z,11.83
2019-02-17T12:45:10.799Z,9.77
2019-02-17T12:47:40.351Z,12.17
2019-02-17T12:50:09.481Z,10.37
2019-02-17T12:52:46.782Z,8.93
2019-02-17T12:55:08.403Z,12.07
2019-02-17T12:57:37.141Z,10.77
2019-02-17T13:00:06.521Z,9.30
2019-02-17T13:02:35.069Z,8.03
2019-02-17T13:05:03.729Z,10.17
2019-02-17T13:07:32.136Z,9.37
2019-02-17T13:10:01.100Z,17.17
2019-02-17T13:12:29.465Z,16.93
2019-02-17T13:14:58.253Z,9.60
2019-02-17T13:17:27.248Z,11.53
2019-02-17T13:19:56.236Z,8.80
2019-02-17T13:22:25.097Z,8.53
2019-02-17T13:24:53.885Z,10.87
2019-02-17T13:27:22.267Z,7.78
2019-02-17T13:29:50.598Z,7.37
2019-02-17T13:32:19.084Z,9.55
2019-02-17T13:34:47.925Z,7.97
2019-02-17T13:37:16.705Z,6.50
2019-02-17T13:39:45.745Z,7.10
2019-02-17T13:42:14.714Z,7.05
2019-02-17T13:44:44.040Z,10.38
2019-02-17T13:47:13.053Z,10.95
2019-02-17T13:49:43.375Z,9.95
2019-02-17T13:52:13.229Z,8.03
2019-02-17T13:54:41.665Z,9.68
2019-02-17T13:57:10.769Z,11.40
2019-02-17T13:59:39.060Z,8.25
2019-02-17T14:02:07.553Z,8.75
2019-02-17T14:04:36.181Z,8.50
2019-02-17T14:07:08.337Z,9.95
2019-02-17T14:09:37.242Z,5.35
2019-02-17T14:12:05.978Z,6.80
2019-02-17T14:14:38.867Z,11.40
2019-02-17T14:17:07.933Z,12.03
2019-02-17T14:19:36.982Z,15.83
2019-02-17T14:22:05.670Z,7.07
2019-02-17T14:24:34.456Z,7.17
2019-02-17T14:27:03.638Z,8.95
2019-02-17T14:29:31.926Z,8.47
2019-02-17T14:32:01.772Z,6.20
2019-02-17T14:34:30.613Z,8.63
2019-02-17T14:36:59.386Z,7.72
2019-02-17T14:39:28.253Z,7.97
2019-02-17T14:41:56.838Z,10.37
2019-02-17T14:44:25.557Z,8.38
2019-02-17T14:46:54.369Z,7.20
2019-02-17T14:49:23.308Z,7.70
2019-02-17T14:51:52.052Z,6.50
2019-02-17T14:54:21.659Z,8.40
2019-02-17T14:56:50.317Z,14.30
2019-02-17T14:59:18.945Z,6.40
2019-02-17T15:02:11.802Z,9.73
2019-02-17T15:04:40.509Z,10.73
2019-02-17T15:07:09.069Z,7.95
2019-02-17T15:09:37.924Z,8.47
2019-02-17T15:12:12.218Z,8.20
2019-02-17T15:14:40.885Z,8.57
2019-02-17T15:17:09.234Z,10.27
2019-02-17T15:19:37.607Z,8.40
2019-02-17T15:22:06.057Z,10.27
2019-02-17T15:24:34.634Z,11.67
2019-02-17T15:27:03.265Z,12.37
2019-02-17T15:29:31.867Z,13.17
2019-02-17T15:32:00.421Z,13.23
2019-02-17T15:34:29.839Z,10.80
2019-02-17T15:36:58.397Z,11.57
2019-02-17T15:39:27.134Z,11.77
2019-02-17T15:41:55.870Z,18.77
2019-02-17T15:44:24.465Z,11.90
2019-02-17T15:46:52.989Z,10.37
2019-02-17T15:49:21.927Z,14.03
2019-02-17T15:51:50.920Z,11.07
2019-02-17T15:54:19.606Z,10.97
2019-02-17T15:56:48.181Z,12.10
2019-02-17T15:59:16.928Z,12.37
2019-02-17T16:01:45.609Z,11.73
2019-02-17T16:04:14.193Z,12.37
2019-02-17T16:06:42.706Z,9.60
2019-02-17T16:09:11.338Z,10.63
2019-02-17T16:11:39.695Z,10.83
2019-02-17T16:14:08.033Z,10.63
2019-02-17T16:16:36.859Z,11.87
2019-02-17T16:19:05.510Z,14.00
2019-02-17T16:21:34.844Z,12.82
2019-02-17T16:24:03.826Z,12.97
2019-02-17T16:26:32.116Z,11.63
2019-02-17T16:29:01.653Z,19.83
2019-02-17T16:31:30.201Z,14.10
2019-02-17T16:33:58.852Z,20.10
2019-02-17T16:36:27.108Z,14.40
2019-02-17T16:38:55.896Z,15.67
2019-02-17T16:41:24.235Z,18.83
2019-02-17T16:43:52.568Z,17.27
2019-02-17T16:46:21.241Z,18.90
2019-02-17T16:48:49.677Z,23.27
2019-02-17T16:51:18.321Z,23.73
2019-02-17T16:53:47.145Z,25.73
2019-02-17T16:56:15.477Z,21.57
2019-02-17T16:58:44.040Z,28.43
2019-02-17T17:01:12.681Z,23.47
2019-02-17T17:03:41.365Z,20.57
2019-02-17T17:06:09.960Z,23.73
2019-02-17T17:08:38.555Z,18.93
2019-02-17T17:11:06.920Z,23.60
2019-02-17T17:13:35.248Z,25.37
2019-02-17T17:16:04.031Z,21.03
2019-02-17T17:18:32.773Z,24.20
2019-02-17T17:21:01.414Z,23.33
2019-02-17T17:23:30.708Z,26.13
2019-02-17T17:26:04.996Z,25.47
2019-02-17T17:28:37.524Z,26.53
2019-02-17T17:31:06.014Z,27.23
2019-02-17T17:33:35.719Z,28.60
2019-02-17T17:36:04.632Z,26.97
2019-02-17T17:38:33.545Z,25.77
2019-02-17T17:41:02.518Z,28.97
2019-02-17T17:43:32.539Z,34.87
2019-02-17T17:46:01.626Z,36.57
2019-02-17T17:48:30.525Z,35.30
2019-02-17T17:50:59.159Z,34.33
2019-02-17T17:53:28.787Z,35.77
2019-02-17T17:55:57.343Z,37.97
2019-02-17T17:58:26.191Z,33.23
2019-02-17T18:00:55.209Z,30.30
2019-02-17T18:03:23.993Z,34.70
2019-02-17T18:05:52.563Z,35.97
2019-02-17T18:08:21.990Z,39.77
2019-02-17T18:10:51.989Z,38.83
2019-02-17T18:13:22.119Z,32.23
2019-02-17T18:15:50.982Z,39.07
2019-02-17T18:18:19.580Z,37.00
2019-02-17T18:20:49.057Z,30.97
2019-02-17T18:23:20.311Z,31.83
2019-02-17T18:25:51.080Z,31.33
2019-02-17T18:28:22.571Z,38.87
2019-02-17T18:30:52.657Z,37.03
2019-02-17T18:33:41.944Z,40.13
2019-02-17T18:36:11.184Z,43.70
2019-02-17T18:38:39.836Z,44.40
2019-02-17T18:41:08.511Z,41.33
2019-02-17T18:43:37.506Z,43.23
2019-02-17T18:46:05.821Z,43.37
2019-02-17T18:48:34.579Z,42.73
2019-02-17T18:51:03.081Z,47.57
2019-02-17T18:53:31.991Z,37.50
2019-02-17T18:56:00.322Z,44.20
2019-02-17T18:58:29.049Z,39.57
2019-02-17T19:00:57.621Z,38.47
2019-02-17T19:03:26.467Z,39.73
2019-02-17T19:05:55.073Z,40.80
2019-02-17T19:08:23.864Z,42.57
2019-02-17T19:10:52.678Z,36.97
2019-02-17T19:13:21.000Z,44.17
2019-02-17T19:15:49.667Z,43.90
2019-02-17T19:18:18.485Z,38.23
2019-02-17T19:20:47.356Z,40.07
2019-02-17T19:23:16.189Z,40.47
2019-02-17T19:25:44.424Z,38.80
2019-02-17T19:28:12.975Z,47.80
2019-02-17T19:30:41.585Z,58.40
2019-02-17T19:33:09.940Z,52.03
2019-02-17T19:35:41.964Z,68.10
2019-02-17T19:38:09.093Z,68.80
2019-02-17T19:40:37.880Z,78.03
2019-02-17T19:43:06.693Z,77.37
2019-02-17T19:45:36.053Z,70.10
2019-02-17T19:48:05.036Z,59.37
2019-02-17T19:50:34.221Z,67.30
2019-02-17T19:53:03.245Z,57.80
2019-02-17T19:55:32.321Z,62.57
2019-02-17T19:58:00.858Z,53.73
2019-02-17T20:00:29.829Z,59.07
2019-02-17T20:03:16.694Z,47.13
2019-02-17T20:05:52.025Z,48.40
2019-02-17T20:08:19.902Z,47.63
2019-02-17T20:10:48.187Z,39.27
2019-02-17T20:13:16.967Z,37.70
2019-02-17T20:15:45.519Z,38.00
2019-02-17T20:18:14.285Z,40.97
2019-02-17T20:20:46.917Z,30.73
2019-02-17T20:23:16.068Z,33.33
2019-02-17T20:25:44.683Z,33.57
2019-02-17T20:28:13.645Z,34.27
2019-02-17T20:30:42.421Z,33.20
2019-02-17T20:33:12.835Z,37.93
2019-02-17T20:35:41.650Z,44.37
2019-02-17T20:38:10.297Z,38.90
2019-02-17T20:40:38.912Z,45.47
2019-02-17T20:43:26.542Z,40.23
2019-02-17T20:45:55.688Z,34.53
2019-02-17T20:48:24.338Z,30.37
2019-02-17T20:50:53.325Z,33.20
2019-02-17T20:53:21.658Z,30.87
2019-02-17T20:55:52.032Z,35.30
2019-02-17T20:58:24.134Z,33.27
2019-02-17T21:00:55.121Z,32.23
2019-02-17T21:03:27.798Z,37.63
2019-02-17T21:05:57.358Z,40.37
2019-02-17T21:08:26.456Z,30.00
2019-02-17T21:10:57.492Z,35.53
2019-02-17T21:13:29.028Z,33.00
2019-02-17T21:15:58.745Z,30.00
2019-02-17T21:18:28.473Z,30.67
2019-02-17T21:20:56.949Z,26.60
2019-02-17T21:23:26.255Z,26.33
2019-02-17T21:25:57.181Z,29.40
2019-02-17T21:28:27.617Z,23.23
2019-02-17T21:30:56.096Z,25.80
2019-02-17T21:33:24.925Z,29.13
2019-02-17T21:35:53.345Z,24.70
2019-02-17T21:38:24.322Z,26.90
2019-02-17T21:40:53.277Z,24.83
2019-02-17T21:43:21.877Z,24.83
2019-02-17T21:45:51.313Z,27.83
2019-02-17T21:48:20.609Z,34.23
2019-02-17T21:50:49.197Z,33.03
2019-02-17T21:53:20.291Z,25.97
2019-02-17T21:55:51.412Z,37.90
2019-02-17T21:58:19.800Z,29.32
2019-02-17T22:00:49.076Z,27.43
2019-02-17T22:03:18.181Z,27.00
2019-02-17T22:05:47.820Z,22.00
2019-02-17T22:08:21.132Z,23.77
2019-02-17T22:10:50.582Z,24.70
2019-02-17T22:13:19.192Z,21.07
2019-02-17T22:15:48.203Z,22.43
2019-02-17T22:18:16.673Z,23.73
2019-02-17T22:20:45.525Z,23.87
2019-02-17T22:23:14.372Z,30.33
2019-02-17T22:25:46.947Z,24.17
2019-02-17T22:28:16.660Z,17.80
2019-02-17T22:30:45.277Z,28.20
2019-02-17T22:33:13.723Z,25.50
2019-02-17T22:35:42.937Z,33.30
2019-02-17T22:38:11.838Z,22.10
2019-02-17T22:40:45.925Z,26.37
2019-02-17T22:43:15.760Z,24.90
2019-02-17T22:45:44.527Z,21.37
2019-02-17T22:48:13.363Z,19.53
2019-02-17T22:50:41.888Z,25.40
2019-02-17T22:53:10.836Z,21.97
2019-02-17T22:55:39.556Z,17.60
2019-02-17T22:58:08.232Z,19.23
2019-02-17T23:00:55.994Z,20.97
2019-02-17T23:03:26.968Z,17.23
2019-02-17T23:05:55.473Z,18.90
2019-02-17T23:08:49.702Z,18.77
2019-02-17T23:11:18.392Z,15.93
2019-02-17T23:13:46.971Z,14.17
2019-02-17T23:16:15.980Z,18.67
2019-02-17T23:18:44.685Z,24.90
2019-02-17T23:21:13.809Z,14.97
2019-02-17T23:23:42.680Z,14.57
2019-02-17T23:26:12.209Z,14.50
2019-02-17T23:28:42.083Z,13.67
2019-02-17T23:31:10.584Z,14.73
2019-02-17T23:33:39.325Z,13.80
2019-02-17T23:36:07.865Z,16.30
2019-02-17T23:38:36.533Z,14.10
2019-02-17T23:41:05.038Z,15.27
2019-02-17T23:43:33.409Z,16.60
2019-02-17T23:46:01.778Z,15.93
2019-02-17T23:48:30.519Z,14.60
2019-02-17T23:50:59.445Z,17.30
2019-02-17T23:53:28.161Z,14.13
2019-02-17T23:55:56.837Z,14.80
2019-02-17T23:58:25.182Z,14.77
